sensor_id;sensor_type;location;lat;lon;timestamp;pressure;altitude;pressure_sealevel;temperature;humidity
21869;BME280;11099;41.564;23.296;2023-10-31T00:00:26;97043.00;;;12.51;nan
21869;BME280;11099;41.564;23.296;2023-10-31T00:02:52;96651.22;;;9.85;nan
21869;BME280;11099;41.564;23.296;2023-10-31T00:05:17;97092.16;;;12.83;nan
21869;BME280;11099;41.564;23.296;2023-10-31T00:07:43;95845.41;;;4.67;nan
21869;BME280;11099;41.564;23.296;2023-10-31T00:10:08;96525.25;;;9.27;nan
21869;BME280;11099;41.564;23.296;2023-10-31T00:12:34;97009.47;;;12.29;nan
21869;BME280;11099;41.564;23.296;2023-10-31T00:15:00;96683.38;;;9.92;nan
21869;BME280;11099;41.564;23.296;2023-10-31T00:17:25;95231.50;;;0.34;nan
21869;BME280;11099;41.564;23.296;2023-10-31T00:19:51;96380.84;;;7.66;nan
21869;BME280;11099;41.564;23.296;2023-10-31T00:22:16;96075.81;;;5.63;nan
21869;BME280;11099;41.564;23.296;2023-10-31T00:24:42;96496.72;;;8.47;nan
21869;BME280;11099;41.564;23.296;2023-10-31T00:27:08;95470.28;;;1.75;nan
21869;BME280;11099;41.564;23.296;2023-10-31T00:29:34;96896.72;;;11.03;nan
21869;BME280;11099;41.564;23.296;2023-10-31T00:31:59;95839.19;;;3.97;nan
21869;BME280;11099;41.564;23.296;2023-10-31T00:34:25;96523.53;;;8.54;nan
21869;BME280;11099;41.564;23.296;2023-10-31T00:36:50;97137.41;;;12.68;nan
21869;BME280;11099;41.564;23.296;2023-10-31T00:39:16;95679.44;;;3.18;nan
21869;BME280;11099;41.564;23.296;2023-10-31T00:41:44;96833.78;;;11.20;nan
21869;BME280;11099;41.564;23.296;2023-10-31T00:44:13;96932.22;;;12.00;nan
21869;BME280;11099;41.564;23.296;2023-10-31T00:46:39;95733.00;;;4.19;nan
21869;BME280;11099;41.564;23.296;2023-10-31T00:49:05;96514.72;;;9.09;nan
21869;BME280;11099;41.564;23.296;2023-10-31T00:51:30;95237.19;;;0.81;nan
21869;BME280;11099;41.564;23.296;2023-10-31T00:53:56;96181.69;;;6.79;nan
21869;BME280;11099;41.564;23.296;2023-10-31T00:56:21;96341.28;;;8.16;nan
21869;BME280;11099;41.564;23.296;2023-10-31T00:58:47;95573.78;;;2.99;nan
21869;BME280;11099;41.564;23.296;2023-10-31T01:01:13;95889.94;;;4.86;nan
21869;BME280;11099;41.564;23.296;2023-10-31T01:03:39;97069.41;;;12.53;nan
21869;BME280;11099;41.564;23.296;2023-10-31T01:06:05;96270.50;;;7.32;nan
21869;BME280;11099;41.564;23.296;2023-10-31T01:08:30;96196.91;;;6.91;nan
21869;BME280;11099;41.564;23.296;2023-10-31T01:10:56;96915.06;;;11.47;nan
21869;BME280;11099;41.564;23.296;2023-10-31T01:13:22;95218.84;;;0.13;nan
21869;BME280;11099;41.564;23.296;2023-10-31T01:15:47;96282.78;;;7.36;nan
21869;BME280;11099;41.564;23.296;2023-10-31T01:18:13;95873.31;;;4.51;nan
21869;BME280;11099;41.564;23.296;2023-10-31T01:20:39;94356.06;;;-5.77;nan
21869;BME280;11099;41.564;23.296;2023-10-31T01:23:04;96152.72;;;5.87;nan
21869;BME280;11099;41.564;23.296;2023-10-31T01:25:30;95301.91;;;-0.20;nan
21869;BME280;11099;41.564;23.296;2023-10-31T01:27:55;95429.50;;;1.02;nan
21869;BME280;11099;41.564;23.296;2023-10-31T01:30:21;94721.31;;;-3.53;nan
21869;BME280;11099;41.564;23.296;2023-10-31T01:32:46;95350.84;;;0.57;nan
21869;BME280;11099;41.564;23.296;2023-10-31T01:35:12;96336.22;;;7.04;nan
21869;BME280;11099;41.564;23.296;2023-10-31T01:37:37;96354.25;;;7.28;nan
21869;BME280;11099;41.564;23.296;2023-10-31T01:40:03;96525.56;;;8.40;nan
21869;BME280;11099;41.564;23.296;2023-10-31T01:42:29;96939.50;;;11.70;nan
21869;BME280;11099;41.564;23.296;2023-10-31T01:44:55;95292.41;;;0.70;nan
21869;BME280;11099;41.564;23.296;2023-10-31T01:47:20;96424.94;;;7.71;nan
21869;BME280;11099;41.564;23.296;2023-10-31T01:49:47;95500.69;;;1.99;nan
21869;BME280;11099;41.564;23.296;2023-10-31T01:52:13;95243.28;;;0.45;nan
21869;BME280;11099;41.564;23.296;2023-10-31T01:54:38;95739.19;;;3.66;nan
21869;BME280;11099;41.564;23.296;2023-10-31T01:57:05;95070.38;;;-0.98;nan
21869;BME280;11099;41.564;23.296;2023-10-31T01:59:31;96974.38;;;11.44;nan
21869;BME280;11099;41.564;23.296;2023-10-31T02:01:57;96779.56;;;10.62;nan
21869;BME280;11099;41.564;23.296;2023-10-31T02:04:25;94694.44;;;-3.15;nan
21869;BME280;11099;41.564;23.296;2023-10-31T02:06:51;94486.03;;;-4.57;nan
21869;BME280;11099;41.564;23.296;2023-10-31T02:09:17;95160.47;;;-0.46;nan
21869;BME280;11099;41.564;23.296;2023-10-31T02:11:42;95667.28;;;2.46;nan
21869;BME280;11099;41.564;23.296;2023-10-31T02:14:08;95310.59;;;0.03;nan
21869;BME280;11099;41.564;23.296;2023-10-31T02:16:34;96449.97;;;7.04;nan
21869;BME280;11099;41.564;23.296;2023-10-31T02:18:59;95582.91;;;1.72;nan
21869;BME280;11099;41.564;23.296;2023-10-31T02:21:25;96829.72;;;10.04;nan
21869;BME280;11099;41.564;23.296;2023-10-31T02:24:00;96604.50;;;8.43;nan
21869;BME280;11099;41.564;23.296;2023-10-31T02:26:34;95852.22;;;3.71;nan
21869;BME280;11099;41.564;23.296;2023-10-31T02:29:00;96440.97;;;7.57;nan
21869;BME280;11099;41.564;23.296;2023-10-31T02:31:27;95905.28;;;3.95;nan
21869;BME280;11099;41.564;23.296;2023-10-31T02:33:52;95962.72;;;4.56;nan
21869;BME280;11099;41.564;23.296;2023-10-31T02:36:18;96543.38;;;8.13;nan
21869;BME280;11099;41.564;23.296;2023-10-31T02:38:44;96605.56;;;8.77;nan
21869;BME280;11099;41.564;23.296;2023-10-31T02:41:11;95205.56;;;-0.68;nan
21869;BME280;11099;41.564;23.296;2023-10-31T02:43:37;95764.75;;;3.34;nan
21869;BME280;11099;41.564;23.296;2023-10-31T02:46:03;95715.59;;;3.12;nan
21869;BME280;11099;41.564;23.296;2023-10-31T02:48:28;95077.81;;;-0.92;nan
21869;BME280;11099;41.564;23.296;2023-10-31T02:50:57;95051.22;;;-1.49;nan
21869;BME280;11099;41.564;23.296;2023-10-31T02:53:23;96636.28;;;8.86;nan
21869;BME280;11099;41.564;23.296;2023-10-31T02:55:48;96224.91;;;5.74;nan
21869;BME280;11099;41.564;23.296;2023-10-31T02:58:14;95114.47;;;-2.41;nan
21869;BME280;11099;41.564;23.296;2023-10-31T03:00:40;95722.69;;;1.72;nan
21869;BME280;11099;41.564;23.296;2023-10-31T03:03:05;96151.63;;;4.46;nan
21869;BME280;11099;41.564;23.296;2023-10-31T03:05:31;96288.13;;;5.39;nan
21869;BME280;11099;41.564;23.296;2023-10-31T03:07:56;96722.63;;;8.58;nan
21869;BME280;11099;41.564;23.296;2023-10-31T03:10:22;95576.19;;;1.29;nan
21869;BME280;11099;41.564;23.296;2023-10-31T03:12:48;96644.53;;;7.89;nan
21869;BME280;11099;41.564;23.296;2023-10-31T03:15:13;96097.09;;;4.25;nan
21869;BME280;11099;41.564;23.296;2023-10-31T03:17:39;95995.72;;;3.91;nan
21869;BME280;11099;41.564;23.296;2023-10-31T03:20:05;95897.53;;;3.23;nan
21869;BME280;11099;41.564;23.296;2023-10-31T03:22:30;96545.97;;;6.11;nan
21869;BME280;11099;41.564;23.296;2023-10-31T03:24:56;95411.69;;;-0.85;nan
21869;BME280;11099;41.564;23.296;2023-10-31T03:27:21;95439.47;;;-0.24;nan
21869;BME280;11099;41.564;23.296;2023-10-31T03:29:48;96529.63;;;7.42;nan
21869;BME280;11099;41.564;23.296;2023-10-31T03:32:14;96457.56;;;6.88;nan
21869;BME280;11099;41.564;23.296;2023-10-31T03:34:40;95147.09;;;-1.41;nan
21869;BME280;11099;41.564;23.296;2023-10-31T03:37:07;96628.84;;;8.54;nan
21869;BME280;11099;41.564;23.296;2023-10-31T03:39:33;96713.38;;;9.07;nan
21869;BME280;11099;41.564;23.296;2023-10-31T03:41:59;96348.47;;;6.74;nan
21869;BME280;11099;41.564;23.296;2023-10-31T03:44:24;95650.56;;;2.20;nan
21869;BME280;11099;41.564;23.296;2023-10-31T03:46:50;96471.19;;;7.38;nan
21869;BME280;11099;41.564;23.296;2023-10-31T03:49:16;95336.84;;;0.25;nan
21869;BME280;11099;41.564;23.296;2023-10-31T03:51:41;94212.72;;;-7.23;nan
21869;BME280;11099;41.564;23.296;2023-10-31T03:54:08;96684.03;;;9.12;nan
21869;BME280;11099;41.564;23.296;2023-10-31T03:56:40;95826.50;;;3.14;nan
21869;BME280;11099;41.564;23.296;2023-10-31T03:59:06;95376.13;;;-0.48;nan
21869;BME280;11099;41.564;23.296;2023-10-31T04:01:32;94915.53;;;-3.72;nan
21869;BME280;11099;41.564;23.296;2023-10-31T04:03:57;95321.06;;;-0.85;nan
21869;BME280;11099;41.564;23.296;2023-10-31T04:06:23;94682.81;;;-5.54;nan
21869;BME280;11099;41.564;23.296;2023-10-31T04:08:48;96305.72;;;4.85;nan
21869;BME280;11099;41.564;23.296;2023-10-31T04:11:14;95771.75;;;1.12;nan
21869;BME280;11099;41.564;23.296;2023-10-31T04:13:39;96306.31;;;4.82;nan
21869;BME280;11099;41.564;23.296;2023-10-31T04:16:05;94825.94;;;-4.70;nan
21869;BME280;11099;41.564;23.296;2023-10-31T04:18:31;95307.41;;;-1.47;nan
21869;BME280;11099;41.564;23.296;2023-10-31T04:20:56;96252.03;;;4.81;nan
21869;BME280;11099;41.564;23.296;2023-10-31T04:23:22;95354.59;;;-1.86;nan
21869;BME280;11099;41.564;23.296;2023-10-31T04:25:47;95465.09;;;-1.82;nan
21869;BME280;11099;41.564;23.296;2023-10-31T04:28:13;95167.03;;;-3.30;nan
21869;BME280;11099;41.564;23.296;2023-10-31T04:30:40;96425.41;;;4.98;nan
21869;BME280;11099;41.564;23.296;2023-10-31T04:33:05;95051.50;;;-4.79;nan
21869;BME280;11099;41.564;23.296;2023-10-31T04:35:31;95554.50;;;-1.23;nan
21869;BME280;11099;41.564;23.296;2023-10-31T04:37:56;94916.88;;;-4.81;nan
21869;BME280;11099;41.564;23.296;2023-10-31T04:40:22;96242.06;;;3.51;nan
21869;BME280;11099;41.564;23.296;2023-10-31T04:42:47;96495.47;;;4.90;nan
21869;BME280;11099;41.564;23.296;2023-10-31T04:45:13;95591.19;;;-0.48;nan
21869;BME280;11099;41.564;23.296;2023-10-31T04:47:39;93995.75;;;-10.85;nan
21869;BME280;11099;41.564;23.296;2023-10-31T04:50:04;94830.31;;;-5.24;nan
21869;BME280;11099;41.564;23.296;2023-10-31T04:52:31;95279.75;;;-2.28;nan
21869;BME280;11099;41.564;23.296;2023-10-31T04:54:56;95938.06;;;2.45;nan
21869;BME280;11099;41.564;23.296;2023-10-31T04:57:22;94066.22;;;-9.80;nan
21869;BME280;11099;41.564;23.296;2023-10-31T04:59:48;96204.81;;;4.12;nan
21869;BME280;11099;41.564;23.296;2023-10-31T05:02:14;96175.34;;;3.47;nan
21869;BME280;11099;41.564;23.296;2023-10-31T05:04:39;95047.88;;;-3.76;nan
21869;BME280;11099;41.564;23.296;2023-10-31T05:07:08;96457.44;;;5.05;nan
21869;BME280;11099;41.564;23.296;2023-10-31T05:09:34;95458.75;;;-1.76;nan
21869;BME280;11099;41.564;23.296;2023-10-31T05:11:59;96405.53;;;4.78;nan
21869;BME280;11099;41.564;23.296;2023-10-31T05:14:25;95676.38;;;0.47;nan
21869;BME280;11099;41.564;23.296;2023-10-31T05:16:51;95516.41;;;-0.44;nan
21869;BME280;11099;41.564;23.296;2023-10-31T05:19:16;96507.03;;;6.25;nan
21869;BME280;11099;41.564;23.296;2023-10-31T05:21:42;95867.06;;;2.22;nan
21869;BME280;11099;41.564;23.296;2023-10-31T05:24:08;96030.66;;;3.47;nan
21869;BME280;11099;41.564;23.296;2023-10-31T05:26:33;96049.03;;;3.96;nan
21869;BME280;11099;41.564;23.296;2023-10-31T05:28:59;96408.53;;;5.80;nan
21869;BME280;11099;41.564;23.296;2023-10-31T05:31:25;95454.78;;;-0.17;nan
21869;BME280;11099;41.564;23.296;2023-10-31T05:33:51;94752.63;;;-4.14;nan
21869;BME280;11099;41.564;23.296;2023-10-31T05:36:21;95677.94;;;1.91;nan
21869;BME280;11099;41.564;23.296;2023-10-31T05:38:47;95075.69;;;-1.91;nan
21869;BME280;11099;41.564;23.296;2023-10-31T05:41:14;95719.75;;;2.37;nan
21869;BME280;11099;41.564;23.296;2023-10-31T05:43:40;94771.03;;;-3.92;nan
21869;BME280;11099;41.564;23.296;2023-10-31T05:46:05;93681.63;;;-10.85;nan
21869;BME280;11099;41.564;23.296;2023-10-31T05:48:31;96553.31;;;8.51;nan
21869;BME280;11099;41.564;23.296;2023-10-31T05:50:57;94827.06;;;-2.36;nan
21869;BME280;11099;41.564;23.296;2023-10-31T05:53:22;95939.59;;;3.59;nan
21869;BME280;11099;41.564;23.296;2023-10-31T05:55:48;95987.38;;;4.51;nan
21869;BME280;11099;41.564;23.296;2023-10-31T05:58:14;94888.56;;;-2.08;nan
21869;BME280;11099;41.564;23.296;2023-10-31T06:00:40;96598.50;;;9.28;nan
21869;BME280;11099;41.564;23.296;2023-10-31T06:03:05;95077.81;;;-1.19;nan
21869;BME280;11099;41.564;23.296;2023-10-31T06:05:31;96048.31;;;6.42;nan
21869;BME280;11099;41.564;23.296;2023-10-31T06:07:57;93887.53;;;-8.05;nan
21869;BME280;11099;41.564;23.296;2023-10-31T06:10:25;95775.97;;;4.45;nan
21869;BME280;11099;41.564;23.296;2023-10-31T06:12:50;94582.69;;;-4.27;nan
21869;BME280;11099;41.564;23.296;2023-10-31T06:15:16;94755.00;;;-2.27;nan
21869;BME280;11099;41.564;23.296;2023-10-31T06:17:41;96247.13;;;8.40;nan
21869;BME280;11099;41.564;23.296;2023-10-31T06:20:08;95585.50;;;2.93;nan
21869;BME280;11099;41.564;23.296;2023-10-31T06:22:34;93781.47;;;-9.95;nan
21869;BME280;11099;41.564;23.296;2023-10-31T06:24:59;95986.66;;;4.06;nan
21869;BME280;11099;41.564;23.296;2023-10-31T06:27:25;96200.84;;;5.75;nan
21869;BME280;11099;41.564;23.296;2023-10-31T06:29:51;96657.22;;;8.70;nan
21869;BME280;11099;41.564;23.296;2023-10-31T06:32:16;94441.47;;;-5.48;nan
21869;BME280;11099;41.564;23.296;2023-10-31T06:34:42;96427.44;;;7.41;nan
21869;BME280;11099;41.564;23.296;2023-10-31T06:37:08;95469.63;;;2.23;nan
21869;BME280;11099;41.564;23.296;2023-10-31T06:39:33;95876.59;;;4.82;nan
21869;BME280;11099;41.564;23.296;2023-10-31T06:41:59;94579.78;;;-3.47;nan
21869;BME280;11099;41.564;23.296;2023-10-31T06:44:25;93219.94;;;-11.60;nan
21869;BME280;11099;41.564;23.296;2023-10-31T06:46:52;96356.00;;;9.57;nan
21869;BME280;11099;41.564;23.296;2023-10-31T06:49:17;95725.22;;;5.09;nan
21869;BME280;11099;41.564;23.296;2023-10-31T06:51:44;95339.53;;;2.74;nan
21869;BME280;11099;41.564;23.296;2023-10-31T06:54:10;96616.59;;;9.72;nan
21869;BME280;11099;41.564;23.296;2023-10-31T06:56:35;95980.63;;;5.85;nan
21869;BME280;11099;41.564;23.296;2023-10-31T06:59:01;95891.44;;;6.46;nan
21869;BME280;11099;41.564;23.296;2023-10-31T07:01:26;95364.59;;;3.15;nan
21869;BME280;11099;41.564;23.296;2023-10-31T07:03:52;96702.84;;;12.00;nan
21869;BME280;11099;41.564;23.296;2023-10-31T07:06:17;96767.63;;;12.89;nan
21869;BME280;11099;41.564;23.296;2023-10-31T07:08:43;95385.00;;;4.00;nan
21869;BME280;11099;41.564;23.296;2023-10-31T07:11:08;96513.47;;;11.23;nan
21869;BME280;11099;41.564;23.296;2023-10-31T07:13:34;96237.22;;;9.45;nan
21869;BME280;11099;41.564;23.296;2023-10-31T07:15:59;96289.38;;;8.95;nan
21869;BME280;11099;41.564;23.296;2023-10-31T07:18:25;95702.25;;;5.10;nan
21869;BME280;11099;41.564;23.296;2023-10-31T07:20:50;95631.81;;;4.55;nan
21869;BME280;11099;41.564;23.296;2023-10-31T07:23:16;96171.81;;;8.41;nan
21869;BME280;11099;41.564;23.296;2023-10-31T07:25:41;96678.16;;;12.15;nan
21869;BME280;11099;41.564;23.296;2023-10-31T07:28:08;95005.81;;;-0.25;nan
21869;BME280;11099;41.564;23.296;2023-10-31T07:30:34;96194.63;;;7.74;nan
21869;BME280;11099;41.564;23.296;2023-10-31T07:32:59;95576.88;;;4.10;nan
21869;BME280;11099;41.564;23.296;2023-10-31T07:35:25;94892.13;;;-0.37;nan
21869;BME280;11099;41.564;23.296;2023-10-31T07:37:50;95823.91;;;6.78;nan
21869;BME280;11099;41.564;23.296;2023-10-31T07:40:16;95352.38;;;3.36;nan
21869;BME280;11099;41.564;23.296;2023-10-31T07:42:41;96670.56;;;12.17;nan
21869;BME280;11099;41.564;23.296;2023-10-31T07:45:07;94776.34;;;0.37;nan
21869;BME280;11099;41.564;23.296;2023-10-31T07:47:33;96754.97;;;13.14;nan
21869;BME280;11099;41.564;23.296;2023-10-31T07:49:58;96021.06;;;8.64;nan
21869;BME280;11099;41.564;23.296;2023-10-31T07:52:24;95253.13;;;3.92;nan
21869;BME280;11099;41.564;23.296;2023-10-31T07:54:49;95384.13;;;4.63;nan
21869;BME280;11099;41.564;23.296;2023-10-31T07:57:15;96282.13;;;10.57;nan
21869;BME280;11099;41.564;23.296;2023-10-31T07:59:40;95840.56;;;8.11;nan
21869;BME280;11099;41.564;23.296;2023-10-31T08:02:06;96167.84;;;10.76;nan
21869;BME280;11099;41.564;23.296;2023-10-31T08:04:32;96222.91;;;10.60;nan
21869;BME280;11099;41.564;23.296;2023-10-31T08:06:57;95810.50;;;8.07;nan
21869;BME280;11099;41.564;23.296;2023-10-31T08:09:23;96066.09;;;9.70;nan
21869;BME280;11099;41.564;23.296;2023-10-31T08:11:48;95955.94;;;9.15;nan
21869;BME280;11099;41.564;23.296;2023-10-31T08:14:14;96400.81;;;11.91;nan
21869;BME280;11099;41.564;23.296;2023-10-31T08:16:43;96275.44;;;11.43;nan
21869;BME280;11099;41.564;23.296;2023-10-31T08:19:09;95685.41;;;7.28;nan
21869;BME280;11099;41.564;23.296;2023-10-31T08:21:34;96646.56;;;13.77;nan
21869;BME280;11099;41.564;23.296;2023-10-31T08:24:04;96770.34;;;14.91;nan
21869;BME280;11099;41.564;23.296;2023-10-31T08:26:31;96108.84;;;10.18;nan
21869;BME280;11099;41.564;23.296;2023-10-31T08:28:57;96654.03;;;14.38;nan
21869;BME280;11099;41.564;23.296;2023-10-31T08:31:22;95827.03;;;8.90;nan
21869;BME280;11099;41.564;23.296;2023-10-31T08:33:48;96610.56;;;14.25;nan
21869;BME280;11099;41.564;23.296;2023-10-31T08:36:14;96074.31;;;10.46;nan
21869;BME280;11099;41.564;23.296;2023-10-31T08:38:39;95667.13;;;7.72;nan
21869;BME280;11099;41.564;23.296;2023-10-31T08:41:05;95893.50;;;9.34;nan
21869;BME280;11099;41.564;23.296;2023-10-31T08:43:30;96577.75;;;13.93;nan
21869;BME280;11099;41.564;23.296;2023-10-31T08:45:57;96769.84;;;15.24;nan
21869;BME280;11099;41.564;23.296;2023-10-31T08:48:22;95523.88;;;7.25;nan
21869;BME280;11099;41.564;23.296;2023-10-31T08:50:48;96101.22;;;11.16;nan
21869;BME280;11099;41.564;23.296;2023-10-31T08:53:14;95899.66;;;10.06;nan
21869;BME280;11099;41.564;23.296;2023-10-31T08:55:40;96039.84;;;11.28;nan
21869;BME280;11099;41.564;23.296;2023-10-31T08:58:10;95517.50;;;7.78;nan
21869;BME280;11099;41.564;23.296;2023-10-31T09:00:36;96173.25;;;13.15;nan
21869;BME280;11099;41.564;23.296;2023-10-31T09:03:01;97053.19;;;18.43;nan
21869;BME280;11099;41.564;23.296;2023-10-31T09:05:27;96573.38;;;15.73;nan
21869;BME280;11099;41.564;23.296;2023-10-31T09:07:52;96522.22;;;15.36;nan
21869;BME280;11099;41.564;23.296;2023-10-31T09:10:18;96175.88;;;13.31;nan
21869;BME280;11099;41.564;23.296;2023-10-31T09:12:43;95785.25;;;10.69;nan
21869;BME280;11099;41.564;23.296;2023-10-31T09:15:09;95675.44;;;10.34;nan
21869;BME280;11099;41.564;23.296;2023-10-31T09:17:35;96755.16;;;17.12;nan
21869;BME280;11099;41.564;23.296;2023-10-31T09:20:01;96325.19;;;14.43;nan
21869;BME280;11099;41.564;23.296;2023-10-31T09:22:27;95604.50;;;9.67;nan
21869;BME280;11099;41.564;23.296;2023-10-31T09:24:52;95867.25;;;11.96;nan
21869;BME280;11099;41.564;23.296;2023-10-31T09:27:18;95953.50;;;12.95;nan
21869;BME280;11099;41.564;23.296;2023-10-31T09:29:43;96676.00;;;17.51;nan
21869;BME280;11099;41.564;23.296;2023-10-31T09:32:09;95840.41;;;12.08;nan
21869;BME280;11099;41.564;23.296;2023-10-31T09:34:35;96990.47;;;20.04;nan
21869;BME280;11099;41.564;23.296;2023-10-31T09:37:00;96759.56;;;18.06;nan
21869;BME280;11099;41.564;23.296;2023-10-31T09:39:26;96417.47;;;15.82;nan
21869;BME280;11099;41.564;23.296;2023-10-31T09:41:53;97133.09;;;20.36;nan
21869;BME280;11099;41.564;23.296;2023-10-31T09:44:18;96759.78;;;18.34;nan
21869;BME280;11099;41.564;23.296;2023-10-31T09:46:45;97007.84;;;20.03;nan
21869;BME280;11099;41.564;23.296;2023-10-31T09:49:10;95508.91;;;10.48;nan
21869;BME280;11099;41.564;23.296;2023-10-31T09:51:37;95795.88;;;12.35;nan
21869;BME280;11099;41.564;23.296;2023-10-31T09:54:04;95677.56;;;11.71;nan
21869;BME280;11099;41.564;23.296;2023-10-31T09:56:32;96052.50;;;14.12;nan
21869;BME280;11099;41.564;23.296;2023-10-31T09:59:04;96320.63;;;15.61;nan
21869;BME280;11099;41.564;23.296;2023-10-31T10:01:29;96025.28;;;14.36;nan
21869;BME280;11099;41.564;23.296;2023-10-31T10:03:56;96460.28;;;17.31;nan
21869;BME280;11099;41.564;23.296;2023-10-31T10:06:21;97081.97;;;21.64;nan
21869;BME280;11099;41.564;23.296;2023-10-31T10:08:49;96895.16;;;20.00;nan
21869;BME280;11099;41.564;23.296;2023-10-31T10:11:15;96899.81;;;20.17;nan
21869;BME280;11099;41.564;23.296;2023-10-31T10:13:41;96276.88;;;15.53;nan
21869;BME280;11099;41.564;23.296;2023-10-31T10:16:06;97039.75;;;20.70;nan
21869;BME280;11099;41.564;23.296;2023-10-31T10:18:34;96993.13;;;19.86;nan
21869;BME280;11099;41.564;23.296;2023-10-31T10:21:02;97084.56;;;20.64;nan
21869;BME280;11099;41.564;23.296;2023-10-31T10:23:28;95942.59;;;13.04;nan
21869;BME280;11099;41.564;23.296;2023-10-31T10:25:55;96763.25;;;18.31;nan
21869;BME280;11099;41.564;23.296;2023-10-31T10:28:22;95255.00;;;8.31;nan
21869;BME280;11099;41.564;23.296;2023-10-31T10:30:50;96362.41;;;15.62;nan
21869;BME280;11099;41.564;23.296;2023-10-31T10:33:16;96927.16;;;19.21;nan
21869;BME280;11099;41.564;23.296;2023-10-31T10:35:43;96698.59;;;17.80;nan
21869;BME280;11099;41.564;23.296;2023-10-31T10:38:14;96850.25;;;18.83;nan
21869;BME280;11099;41.564;23.296;2023-10-31T10:40:41;96423.38;;;16.32;nan
21869;BME280;11099;41.564;23.296;2023-10-31T10:43:13;97085.41;;;21.00;nan
21869;BME280;11099;41.564;23.296;2023-10-31T10:45:43;95845.19;;;13.24;nan
21869;BME280;11099;41.564;23.296;2023-10-31T10:48:15;96939.28;;;20.75;nan
21869;BME280;11099;41.564;23.296;2023-10-31T10:50:43;96345.44;;;16.73;nan
21869;BME280;11099;41.564;23.296;2023-10-31T10:53:21;97066.13;;;21.30;nan
21869;BME280;11099;41.564;23.296;2023-10-31T10:55:51;96978.72;;;21.01;nan
21869;BME280;11099;41.564;23.296;2023-10-31T11:01:02;97512.72;;;25.23;nan
21869;BME280;11099;41.564;23.296;2023-10-31T11:03:29;96527.34;;;18.37;nan
21869;BME280;11099;41.564;23.296;2023-10-31T11:05:56;96039.00;;;15.06;nan
21869;BME280;11099;41.564;23.296;2023-10-31T11:08:23;93630.25;;;-1.55;nan
21869;BME280;11099;41.564;23.296;2023-10-31T11:10:55;95575.97;;;11.49;nan
21869;BME280;11099;41.564;23.296;2023-10-31T11:13:22;94982.50;;;7.55;nan
21869;BME280;11099;41.564;23.296;2023-10-31T11:15:51;94815.19;;;6.69;nan
21869;BME280;11099;41.564;23.296;2023-10-31T11:18:18;95958.97;;;13.85;nan
21869;BME280;11099;41.564;23.296;2023-10-31T11:20:44;95547.44;;;11.00;nan
21869;BME280;11099;41.564;23.296;2023-10-31T11:23:10;96207.31;;;15.30;nan
21869;BME280;11099;41.564;23.296;2023-10-31T11:25:42;96920.28;;;20.18;nan
21869;BME280;11099;41.564;23.296;2023-10-31T11:28:16;96452.16;;;17.24;nan
21869;BME280;11099;41.564;23.296;2023-10-31T11:30:43;94665.00;;;5.30;nan
21869;BME280;11099;41.564;23.296;2023-10-31T11:33:15;95990.94;;;14.08;nan
21869;BME280;11099;41.564;23.296;2023-10-31T11:35:42;96225.13;;;15.12;nan
21869;BME280;11099;41.564;23.296;2023-10-31T11:38:10;95356.56;;;9.83;nan
21869;BME280;11099;41.564;23.296;2023-10-31T11:43:17;95295.44;;;8.98;nan
21869;BME280;11099;41.564;23.296;2023-10-31T11:45:44;95505.66;;;10.81;nan
21869;BME280;11099;41.564;23.296;2023-10-31T11:48:13;96321.22;;;16.18;nan
21869;BME280;11099;41.564;23.296;2023-10-31T11:50:41;94801.69;;;6.03;nan
21869;BME280;11099;41.564;23.296;2023-10-31T11:53:11;95120.31;;;7.98;nan
21869;BME280;11099;41.564;23.296;2023-10-31T11:55:43;92992.25;;;-5.61;nan
21869;BME280;11099;41.564;23.296;2023-10-31T11:58:23;95581.38;;;11.56;nan
21869;BME280;11099;41.564;23.296;2023-10-31T12:01:05;96681.16;;;18.80;nan
21869;BME280;11099;41.564;23.296;2023-10-31T12:03:42;95740.22;;;12.93;nan
21869;BME280;11099;41.564;23.296;2023-10-31T12:06:09;96784.00;;;19.98;nan
21869;BME280;11099;41.564;23.296;2023-10-31T12:08:37;95251.63;;;10.19;nan
21869;BME280;11099;41.564;23.296;2023-10-31T12:13:29;96050.00;;;16.07;nan
21869;BME280;11099;41.564;23.296;2023-10-31T12:15:57;94434.31;;;5.24;nan
21869;BME280;11099;41.564;23.296;2023-10-31T12:18:22;96812.03;;;21.29;nan
21869;BME280;11099;41.564;23.296;2023-10-31T12:20:49;96525.53;;;19.59;nan
21869;BME280;11099;41.564;23.296;2023-10-31T12:23:15;95949.16;;;16.02;nan
21869;BME280;11099;41.564;23.296;2023-10-31T12:25:53;96355.28;;;18.64;nan
21869;BME280;11099;41.564;23.296;2023-10-31T12:28:21;96643.53;;;20.02;nan
21869;BME280;11099;41.564;23.296;2023-10-31T12:30:52;96375.25;;;18.06;nan
21869;BME280;11099;41.564;23.296;2023-10-31T12:33:25;95654.38;;;12.91;nan
21869;BME280;11099;41.564;23.296;2023-10-31T12:35:58;96576.44;;;19.18;nan
21869;BME280;11099;41.564;23.296;2023-10-31T12:38:25;96814.13;;;20.29;nan
21869;BME280;11099;41.564;23.296;2023-10-31T12:40:51;96291.72;;;16.76;nan
21869;BME280;11099;41.564;23.296;2023-10-31T12:43:17;96856.63;;;20.39;nan
21869;BME280;11099;41.564;23.296;2023-10-31T12:45:45;96304.06;;;16.84;nan
21869;BME280;11099;41.564;23.296;2023-10-31T12:48:11;96345.16;;;16.89;nan
21869;BME280;11099;41.564;23.296;2023-10-31T12:50:38;96763.13;;;19.77;nan
21869;BME280;11099;41.564;23.296;2023-10-31T12:53:08;96045.13;;;15.06;nan
21869;BME280;11099;41.564;23.296;2023-10-31T12:55:41;96772.41;;;19.87;nan
21869;BME280;11099;41.564;23.296;2023-10-31T12:58:08;96497.63;;;18.23;nan
21869;BME280;11099;41.564;23.296;2023-10-31T13:00:40;95567.72;;;12.15;nan
21869;BME280;11099;41.564;23.296;2023-10-31T13:03:08;96800.22;;;20.19;nan
21869;BME280;11099;41.564;23.296;2023-10-31T13:05:34;96782.06;;;19.98;nan
21869;BME280;11099;41.564;23.296;2023-10-31T13:08:01;95400.34;;;10.80;nan
21869;BME280;11099;41.564;23.296;2023-10-31T13:10:30;96261.66;;;16.64;nan
21869;BME280;11099;41.564;23.296;2023-10-31T13:12:58;96498.03;;;18.29;nan
21869;BME280;11099;41.564;23.296;2023-10-31T13:15:24;95617.50;;;12.33;nan
21869;BME280;11099;41.564;23.296;2023-10-31T13:17:52;95503.66;;;11.51;nan